This is the latest recevied weather packets stored in our database for station/object KK7AZD-13. If no packets are shown the sender has not sent any weather packets the latest 1 day(s).
| Time | Temp. | Humidity | Pressure | Rain* | Wind** | Luminosity | Snow |
|---|---|---|---|---|---|---|---|
| 1778043688 | 12.78° C | 72% | 1016.4 hPa | 0 mm | - | 0 W/m² | - |
| 1778042785 | 12.22° C | 73% | 1016.5 hPa | 0 mm | - | 0 W/m² | - |
| 1778041883 | 13.33° C | 69% | 1016 hPa | 0 mm | - | 0 W/m² | - |
| 1778039171 | 15.56° C | 63% | 1015.7 hPa | 0 mm | - | 0 W/m² | - |
| 1778038268 | 16.67° C | 58% | 1015.2 hPa | 0 mm | - | 0 W/m² | - |
| 1778037365 | 17.22° C | 58% | 1014.9 hPa | 0 mm | - | 1 W/m² | - |
| 1778036463 | 17.78° C | 54% | 1014.9 hPa | 0 mm | - | 10 W/m² | - |
| 1778035559 | 18.33° C | 53% | 1014.5 hPa | 0 mm | - | 20 W/m² | - |
| 1778034655 | 18.89° C | 53% | 1014.5 hPa | 0 mm | - | 34 W/m² | - |
| 1778033753 | 19.44° C | 53% | 1014 hPa | 0 mm | - | 49 W/m² | - |
| 1778031948 | 20° C | 53% | 1013.9 hPa | 0 mm | - | 139 W/m² | - |
| 1778031044 | 20.56° C | 51% | 1013.7 hPa | 0 mm | - | 153 W/m² | - |
| 1778029238 | 20.56° C | 49% | 1013.3 hPa | 0 mm | - | 269 W/m² | - |
| 1778026524 | 20.56° C | 50% | 1013.5 hPa | 0 mm | - | 374 W/m² | - |
| 1778023817 | 21.11° C | 48% | 1013.3 hPa | 0 mm | - | 560 W/m² | - |
| 1778022914 | 22.22° C | 44% | 1013.5 hPa | 0 mm | - | 710 W/m² | - |
| 1778022012 | 21.11° C | 46% | 1013.3 hPa | 0 mm | - | 277 W/m² | - |
| 1778021108 | 21.67° C | 42% | 1013.1 hPa | 0 mm | - | 162 W/m² | - |
| 1778015689 | 21.11° C | 40% | 1013.3 hPa | 0 mm | - | 163 W/m² | - |
| 1778013883 | 22.78° C | 34% | 1013.2 hPa | 0 mm | - | 936 W/m² | - |
| 1778009364 | 19.44° C | 40% | 1013.7 hPa | 0 mm | - | 511 W/m² | - |
| 1778008464 | 20° C | 39% | 1013.7 hPa | 0 mm | - | 940 W/m² | - |
* Rain latest hour (hover to see other rain measurements)
** Current wind speed in m/s (hover to see current wind gust speed)